createdAt,value
2022-11-05T00:02:52.333Z,8.39
2022-11-05T00:05:56.284Z,8.48
2022-11-05T00:09:00.440Z,8.52
2022-11-05T00:12:04.521Z,8.53
2022-11-05T00:15:08.553Z,8.51
2022-11-05T00:17:54.311Z,8.52
2022-11-05T00:20:39.869Z,8.52
2022-11-05T00:23:44.113Z,8.48
2022-11-05T00:26:31.539Z,8.47
2022-11-05T00:29:17.001Z,8.53
2022-11-05T00:32:02.703Z,8.55
2022-11-05T00:34:48.239Z,8.64
2022-11-05T00:37:34.022Z,8.76
2022-11-05T00:40:19.949Z,8.81
2022-11-05T00:43:23.789Z,8.87
2022-11-05T00:46:09.888Z,8.89
2022-11-05T00:49:13.805Z,8.89
2022-11-05T00:52:17.905Z,8.91
2022-11-05T00:55:03.787Z,8.88
2022-11-05T00:57:49.698Z,8.86
2022-11-05T01:00:38.151Z,8.81
2022-11-05T01:03:27.520Z,8.79
2022-11-05T01:06:16.214Z,8.74
2022-11-05T01:09:01.880Z,8.73
2022-11-05T01:11:47.224Z,8.69
2022-11-05T01:14:32.606Z,8.63
2022-11-05T01:17:18.170Z,8.59
2022-11-05T01:20:04.313Z,8.57
2022-11-05T01:22:49.483Z,8.54
2022-11-05T01:25:35.429Z,8.51
2022-11-05T01:28:20.728Z,8.48
2022-11-05T01:31:06.221Z,8.46
2022-11-05T01:33:51.959Z,8.48
2022-11-05T01:36:37.389Z,8.48
2022-11-05T01:39:22.675Z,8.50
2022-11-05T01:42:19.058Z,8.47
2022-11-05T01:45:07.502Z,8.45
2022-11-05T01:48:19.548Z,8.44
2022-11-05T01:51:08.980Z,8.40
2022-11-05T01:54:02.957Z,8.42
2022-11-05T01:56:54.762Z,8.47
2022-11-05T01:59:44.189Z,8.50
2022-11-05T02:02:31.514Z,8.52
2022-11-05T02:05:17.896Z,8.53
2022-11-05T02:08:05.278Z,8.53
2022-11-05T02:10:50.935Z,8.53
2022-11-05T02:13:36.850Z,8.52
2022-11-05T02:16:37.541Z,8.52
2022-11-05T02:19:53.783Z,8.55
2022-11-05T02:22:51.339Z,8.55
2022-11-05T02:26:10.608Z,8.52
2022-11-05T02:29:42.415Z,8.51
2022-11-05T02:32:52.566Z,8.51
2022-11-05T02:35:50.684Z,8.48
2022-11-05T02:38:45.120Z,8.48
2022-11-05T02:41:34.340Z,8.46
2022-11-05T02:44:20.158Z,8.46
2022-11-05T02:47:44.234Z,8.45
2022-11-05T02:50:32.644Z,8.45
2022-11-05T02:53:35.029Z,8.43
2022-11-05T02:56:27.012Z,8.43
2022-11-05T02:59:12.676Z,8.43
2022-11-05T03:01:59.971Z,8.45
2022-11-05T03:04:45.699Z,8.44
2022-11-05T03:07:56.275Z,8.44
2022-11-05T03:10:49.244Z,8.43
2022-11-05T03:14:11.108Z,8.43
2022-11-05T03:17:33.574Z,8.39
2022-11-05T03:20:23.772Z,8.35
2022-11-05T03:23:25.648Z,8.34
2022-11-05T03:26:28.793Z,8.33
2022-11-05T03:29:22.293Z,8.31
2022-11-05T03:32:10.007Z,8.32
2022-11-05T03:35:01.438Z,8.37
2022-11-05T03:37:51.740Z,8.43
2022-11-05T03:40:39.593Z,8.43
2022-11-05T03:43:30.606Z,8.42
2022-11-05T03:46:23.238Z,8.41
2022-11-05T03:49:16.305Z,8.39
2022-11-05T03:52:12.243Z,8.38
2022-11-05T03:54:57.921Z,8.37
2022-11-05T03:57:49.735Z,8.41
2022-11-05T04:00:35.487Z,8.39
2022-11-05T04:03:20.718Z,8.39
2022-11-05T04:06:26.704Z,8.40
2022-11-05T04:09:30.736Z,8.43
2022-11-05T04:12:34.876Z,8.42
2022-11-05T04:15:20.405Z,8.40
2022-11-05T04:18:05.671Z,8.40
2022-11-05T04:21:09.674Z,8.40
2022-11-05T04:24:11.323Z,8.39
2022-11-05T04:26:56.788Z,8.39
2022-11-05T04:30:00.755Z,8.39
2022-11-05T04:33:04.149Z,8.39
2022-11-05T04:35:49.767Z,8.39
2022-11-05T04:38:35.280Z,8.40
2022-11-05T04:41:20.696Z,8.41
2022-11-05T04:44:05.988Z,8.40
2022-11-05T04:46:51.322Z,8.39
2022-11-05T04:49:36.696Z,8.39
2022-11-05T04:52:22.084Z,8.41
2022-11-05T04:55:08.510Z,8.42
2022-11-05T04:57:55.081Z,8.43
2022-11-05T05:00:40.792Z,8.44
2022-11-05T05:03:26.230Z,8.45
2022-11-05T05:06:11.687Z,8.48
2022-11-05T05:08:57.185Z,8.50
2022-11-05T05:11:42.800Z,8.53
2022-11-05T05:14:28.679Z,8.54
2022-11-05T05:17:14.032Z,8.55
2022-11-05T05:20:18.159Z,8.58
2022-11-05T05:23:04.183Z,8.60
2022-11-05T05:25:49.825Z,8.62
2022-11-05T05:28:35.242Z,8.64
2022-11-05T05:31:21.800Z,8.66
2022-11-05T05:34:11.084Z,8.69
2022-11-05T05:36:56.773Z,8.72
2022-11-05T05:39:42.191Z,8.77
2022-11-05T05:42:27.900Z,8.82
2022-11-05T05:45:13.291Z,8.85
2022-11-05T05:47:58.576Z,8.89
2022-11-05T05:50:43.987Z,8.90
2022-11-05T05:53:30.652Z,8.95
2022-11-05T05:56:19.342Z,8.94
2022-11-05T05:59:05.856Z,9.01
2022-11-05T06:01:51.399Z,9.06
2022-11-05T06:04:36.759Z,9.10
2022-11-05T06:07:22.118Z,9.13
2022-11-05T06:10:07.767Z,9.16
2022-11-05T06:12:53.421Z,9.21
2022-11-05T06:15:38.753Z,9.36
2022-11-05T06:18:24.283Z,9.54
2022-11-05T06:21:15.487Z,9.70
2022-11-05T06:24:02.409Z,9.77
2022-11-05T06:26:47.673Z,9.79
2022-11-05T06:29:33.163Z,9.82
2022-11-05T06:32:18.454Z,9.94
2022-11-05T06:35:03.907Z,9.98
2022-11-05T06:37:49.443Z,10.02
2022-11-05T06:40:34.900Z,10.06
2022-11-05T06:43:23.425Z,10.16
2022-11-05T06:46:11.205Z,10.33
2022-11-05T06:48:56.616Z,10.39
2022-11-05T06:51:42.203Z,10.44
2022-11-05T06:54:27.815Z,10.43
2022-11-05T06:57:13.414Z,10.49
2022-11-05T07:00:03.283Z,10.52
2022-11-05T07:02:51.933Z,10.52
2022-11-05T07:05:45.228Z,10.53
2022-11-05T07:08:32.646Z,10.59
2022-11-05T07:11:17.873Z,10.65
2022-11-05T07:14:03.281Z,10.75
2022-11-05T07:16:48.810Z,10.86
2022-11-05T07:19:34.893Z,10.92
2022-11-05T07:22:20.487Z,10.94
2022-11-05T07:25:06.718Z,11.03
2022-11-05T07:27:52.928Z,11.05
2022-11-05T07:30:38.589Z,11.05
2022-11-05T07:33:24.277Z,11.10
2022-11-05T07:36:10.210Z,11.12
2022-11-05T07:39:00.146Z,11.17
2022-11-05T07:41:46.234Z,11.27
2022-11-05T07:44:31.795Z,11.36
2022-11-05T07:47:17.325Z,11.40
2022-11-05T07:50:02.609Z,11.42
2022-11-05T07:52:48.825Z,11.44
2022-11-05T07:55:34.952Z,11.41
2022-11-05T07:58:20.443Z,11.45
2022-11-05T08:01:07.360Z,11.46
2022-11-05T08:03:52.867Z,11.48
2022-11-05T08:06:38.327Z,11.60
2022-11-05T08:09:23.993Z,11.62
2022-11-05T08:12:09.427Z,11.65
2022-11-05T08:14:54.703Z,11.66
2022-11-05T08:17:40.125Z,11.69
2022-11-05T08:20:25.718Z,11.73
2022-11-05T08:23:11.738Z,11.76
2022-11-05T08:25:58.523Z,11.78
2022-11-05T08:28:44.003Z,11.84
2022-11-05T08:31:31.117Z,11.90
2022-11-05T08:34:16.747Z,11.96
2022-11-05T08:37:02.413Z,12.04
2022-11-05T08:39:48.030Z,12.08
2022-11-05T08:42:33.382Z,12.12
2022-11-05T08:45:18.720Z,12.15
2022-11-05T08:48:13.235Z,12.19
2022-11-05T08:51:00.495Z,12.26
2022-11-05T08:53:46.191Z,12.29
2022-11-05T08:56:31.606Z,12.38
2022-11-05T08:59:17.025Z,12.42
2022-11-05T09:02:02.473Z,12.43
2022-11-05T09:04:48.241Z,12.43
2022-11-05T09:07:34.001Z,12.47
2022-11-05T09:10:19.453Z,12.48
2022-11-05T09:13:05.656Z,12.50
2022-11-05T09:15:51.534Z,12.55
2022-11-05T09:18:39.044Z,12.59
2022-11-05T09:21:24.893Z,12.64
2022-11-05T09:24:11.303Z,12.67
2022-11-05T09:26:56.902Z,12.68
2022-11-05T09:29:42.698Z,12.67
2022-11-05T09:32:28.195Z,12.63
2022-11-05T09:35:13.710Z,12.57
2022-11-05T09:38:01.081Z,12.54
2022-11-05T09:41:01.106Z,12.49
2022-11-05T09:43:58.663Z,12.49
2022-11-05T09:46:47.683Z,12.48
2022-11-05T09:49:48.641Z,12.46
2022-11-05T09:52:34.986Z,12.41
2022-11-05T09:55:33.025Z,12.34
2022-11-05T09:58:37.154Z,12.31
2022-11-05T10:01:27.251Z,12.23
2022-11-05T10:04:23.772Z,12.20
2022-11-05T10:07:15.915Z,12.05
2022-11-05T10:10:04.530Z,11.93
2022-11-05T10:12:58.746Z,11.82
2022-11-05T10:15:54.079Z,11.73
2022-11-05T10:18:47.364Z,11.70
2022-11-05T10:22:04.313Z,11.67
2022-11-05T10:24:42.819Z,11.68
2022-11-05T10:27:33.381Z,11.78
2022-11-05T10:30:19.864Z,11.93
2022-11-05T10:33:06.998Z,12.06
2022-11-05T10:35:58.197Z,12.13
2022-11-05T10:38:43.926Z,12.24
2022-11-05T10:41:37.612Z,12.24
2022-11-05T10:44:41.991Z,12.26
2022-11-05T10:48:05.460Z,12.25
2022-11-05T10:50:50.809Z,12.16
2022-11-05T10:53:41.556Z,12.01
2022-11-05T10:56:39.410Z,11.87
2022-11-05T10:59:27.323Z,11.76
2022-11-05T11:02:25.980Z,11.71
2022-11-05T11:05:20.782Z,11.72
2022-11-05T11:08:09.106Z,11.80
2022-11-05T11:11:01.239Z,11.84
2022-11-05T11:13:59.097Z,11.84
2022-11-05T11:16:46.923Z,11.88
2022-11-05T11:19:36.153Z,11.91
2022-11-05T11:22:22.251Z,12.04
2022-11-05T11:25:25.069Z,12.07
2022-11-05T11:28:19.889Z,12.01
2022-11-05T11:31:14.257Z,11.93
2022-11-05T11:34:06.078Z,11.90
2022-11-05T11:36:56.007Z,11.75
2022-11-05T11:39:47.143Z,11.69
2022-11-05T11:42:36.767Z,11.63
2022-11-05T11:45:33.929Z,11.73
2022-11-05T11:48:25.032Z,11.86
2022-11-05T11:51:19.059Z,12.00
2022-11-05T11:54:05.585Z,12.13
2022-11-05T11:56:50.969Z,12.14
2022-11-05T12:00:02.375Z,12.06
2022-11-05T12:03:04.179Z,12.01
2022-11-05T12:05:52.878Z,11.99
2022-11-05T12:09:03.436Z,12.01
2022-11-05T12:12:14.562Z,11.98
2022-11-05T12:15:15.412Z,11.86
2022-11-05T12:18:07.589Z,11.83
2022-11-05T12:20:57.947Z,11.76
2022-11-05T12:23:59.303Z,11.78
2022-11-05T12:26:59.064Z,11.87
2022-11-05T12:30:02.839Z,11.94
2022-11-05T12:32:58.867Z,12.03
2022-11-05T12:36:26.707Z,12.15
2022-11-05T12:39:51.053Z,12.23
2022-11-05T12:43:18.476Z,12.29
2022-11-05T12:46:22.236Z,12.32
2022-11-05T12:49:25.455Z,12.34
2022-11-05T12:52:16.814Z,12.23
2022-11-05T12:55:19.454Z,12.22
2022-11-05T12:58:10.451Z,12.16
2022-11-05T13:01:02.455Z,12.14
2022-11-05T13:03:55.172Z,12.12
2022-11-05T13:06:46.753Z,12.14
2022-11-05T13:09:43.841Z,12.19
2022-11-05T13:12:33.333Z,12.21
2022-11-05T13:15:27.884Z,12.22
2022-11-05T13:18:52.330Z,12.23
2022-11-05T13:21:39.479Z,12.25
2022-11-05T13:24:31.152Z,12.28
2022-11-05T13:27:44.184Z,12.30
2022-11-05T13:30:37.706Z,12.34
2022-11-05T13:33:27.608Z,12.39
2022-11-05T13:36:52.506Z,12.34
2022-11-05T13:39:58.311Z,12.28
2022-11-05T13:43:25.652Z,12.09
2022-11-05T13:46:16.867Z,12.03
2022-11-05T13:49:53.275Z,12.11
2022-11-05T13:53:10.101Z,12.19
2022-11-05T13:56:02.151Z,12.33
2022-11-05T13:59:10.806Z,12.47
2022-11-05T14:02:00.987Z,12.48
2022-11-05T14:05:00.524Z,12.51
2022-11-05T14:07:48.051Z,12.44
2022-11-05T14:10:45.898Z,12.39
2022-11-05T14:13:42.354Z,12.39
2022-11-05T14:16:52.129Z,12.44
2022-11-05T14:20:05.729Z,12.56
2022-11-05T14:22:52.012Z,12.69
2022-11-05T14:25:37.397Z,12.88
2022-11-05T14:28:34.891Z,12.90
2022-11-05T14:31:20.204Z,13.06
2022-11-05T14:34:11.523Z,13.10
2022-11-05T14:37:12.683Z,13.09
2022-11-05T14:40:21.124Z,13.08
2022-11-05T14:43:22.020Z,12.92
2022-11-05T14:46:07.924Z,12.89
2022-11-05T14:49:05.204Z,12.69
2022-11-05T14:51:57.915Z,12.51
2022-11-05T14:54:53.914Z,12.43
2022-11-05T14:57:42.301Z,12.34
2022-11-05T15:00:36.609Z,12.26
2022-11-05T15:03:32.727Z,12.16
2022-11-05T15:06:37.190Z,12.04
2022-11-05T15:09:32.291Z,11.88
2022-11-05T15:12:24.757Z,11.75
2022-11-05T15:15:21.395Z,11.63
2022-11-05T15:18:30.635Z,11.56
2022-11-05T15:21:18.660Z,11.45
2022-11-05T15:24:04.769Z,11.38
2022-11-05T15:27:28.188Z,11.31
2022-11-05T15:30:19.523Z,11.28
2022-11-05T15:33:21.076Z,11.28
2022-11-05T15:36:30.142Z,11.33
2022-11-05T15:39:30.123Z,11.36
2022-11-05T15:42:18.824Z,11.34
2022-11-05T15:45:04.680Z,11.30
2022-11-05T15:47:50.028Z,11.24
2022-11-05T15:50:35.399Z,11.13
2022-11-05T15:54:08.261Z,11.00
2022-11-05T15:56:51.241Z,10.85
2022-11-05T15:59:37.484Z,10.73
2022-11-05T16:02:28.930Z,10.60
2022-11-05T16:05:15.200Z,10.49
2022-11-05T16:08:04.303Z,10.32
2022-11-05T16:10:52.373Z,10.21
2022-11-05T16:13:42.137Z,10.07
2022-11-05T16:16:34.009Z,9.95
2022-11-05T16:19:49.583Z,9.71
2022-11-05T16:22:45.736Z,9.52
2022-11-05T16:25:38.107Z,9.31
2022-11-05T16:28:29.303Z,9.12
2022-11-05T16:31:14.539Z,8.92
2022-11-05T16:34:00.185Z,8.70
2022-11-05T16:36:45.812Z,8.58
2022-11-05T16:39:31.588Z,8.44
2022-11-05T16:42:23.050Z,8.24
2022-11-05T16:45:13.795Z,8.16
2022-11-05T16:47:59.024Z,8.09
2022-11-05T16:50:45.312Z,7.92
2022-11-05T16:53:30.631Z,7.81
2022-11-05T16:56:19.503Z,7.74
2022-11-05T16:59:04.942Z,7.59
2022-11-05T17:01:55.569Z,7.63
2022-11-05T17:04:41.639Z,7.52
2022-11-05T17:07:26.983Z,7.38
2022-11-05T17:10:12.401Z,7.24
2022-11-05T17:12:57.835Z,7.22
2022-11-05T17:15:45.501Z,7.15
2022-11-05T17:18:31.287Z,7.12
2022-11-05T17:21:16.598Z,7.02
2022-11-05T17:24:01.936Z,7.04
2022-11-05T17:26:47.420Z,7.06
2022-11-05T17:29:32.703Z,7.05
2022-11-05T17:32:17.945Z,6.97
2022-11-05T17:35:03.791Z,6.88
2022-11-05T17:37:49.634Z,6.77
2022-11-05T17:40:36.394Z,6.90
2022-11-05T17:43:22.224Z,6.87
2022-11-05T17:46:09.377Z,6.84
2022-11-05T17:48:55.303Z,6.74
2022-11-05T17:51:40.856Z,6.73
2022-11-05T17:54:26.397Z,6.68
2022-11-05T17:57:11.954Z,6.56
2022-11-05T17:59:57.366Z,6.62
2022-11-05T18:02:43.182Z,6.57
2022-11-05T18:05:30.509Z,6.54
2022-11-05T18:08:16.728Z,6.71
2022-11-05T18:11:02.481Z,6.69
2022-11-05T18:13:48.314Z,6.50
2022-11-05T18:16:33.966Z,6.49
2022-11-05T18:19:19.620Z,6.38
2022-11-05T18:22:05.234Z,6.35
2022-11-05T18:24:50.859Z,6.37
2022-11-05T18:27:36.661Z,6.20
2022-11-05T18:30:22.137Z,6.10
2022-11-05T18:33:08.156Z,6.01
2022-11-05T18:35:53.409Z,6.01
2022-11-05T18:38:38.952Z,5.94
2022-11-05T18:41:25.176Z,5.80
2022-11-05T18:44:12.735Z,5.72
2022-11-05T18:46:58.963Z,5.78
2022-11-05T18:49:44.472Z,5.80
2022-11-05T18:52:31.922Z,5.84
2022-11-05T18:55:17.534Z,5.83
2022-11-05T18:58:03.248Z,5.78
2022-11-05T19:00:48.810Z,5.93
2022-11-05T19:03:34.321Z,6.00
2022-11-05T19:06:21.182Z,5.92
2022-11-05T19:09:10.032Z,5.99
2022-11-05T19:11:57.149Z,5.90
2022-11-05T19:14:44.849Z,5.86
2022-11-05T19:17:32.560Z,5.79
2022-11-05T19:20:18.100Z,5.69
2022-11-05T19:23:03.651Z,5.68
2022-11-05T19:25:49.157Z,5.73
2022-11-05T19:28:35.170Z,5.55
2022-11-05T19:31:23.745Z,5.61
2022-11-05T19:34:09.479Z,5.46
2022-11-05T19:36:55.211Z,5.55
2022-11-05T19:39:41.315Z,5.55
2022-11-05T19:42:26.961Z,5.55
2022-11-05T19:48:20.054Z,5.72
2022-11-05T19:51:15.582Z,5.82
2022-11-05T19:54:02.675Z,5.85
2022-11-05T19:56:50.066Z,5.93
2022-11-05T19:59:35.604Z,5.99
2022-11-05T20:02:21.146Z,6.06
2022-11-05T20:05:07.063Z,6.05
2022-11-05T20:07:53.348Z,6.04
2022-11-05T20:10:38.896Z,6.02
2022-11-05T20:13:24.763Z,6.02
2022-11-05T20:16:27.888Z,6.02
2022-11-05T20:19:16.667Z,6.07
2022-11-05T20:22:02.296Z,6.19
2022-11-05T20:24:47.979Z,6.16
2022-11-05T20:27:33.351Z,6.24
2022-11-05T20:30:19.971Z,6.32
2022-11-05T20:33:05.403Z,6.42
2022-11-05T20:35:51.138Z,6.53
2022-11-05T20:38:36.609Z,6.64
2022-11-05T20:41:22.943Z,6.77
2022-11-05T20:44:08.468Z,6.94
2022-11-05T20:46:53.977Z,7.17
2022-11-05T20:49:39.416Z,7.40
2022-11-05T20:52:24.594Z,7.62
2022-11-05T20:55:10.467Z,7.96
2022-11-05T20:57:55.976Z,8.24
2022-11-05T21:00:49.352Z,8.40
2022-11-05T21:03:34.827Z,8.61
2022-11-05T21:06:20.293Z,8.73
2022-11-05T21:09:06.269Z,8.82
2022-11-05T21:12:10.223Z,8.92
2022-11-05T21:14:56.091Z,9.02
2022-11-05T21:17:41.659Z,9.03
2022-11-05T21:20:27.208Z,9.10
2022-11-05T21:23:13.433Z,9.15
2022-11-05T21:25:58.842Z,9.14
2022-11-05T21:28:44.352Z,9.16
2022-11-05T21:31:30.165Z,9.16
2022-11-05T21:34:16.775Z,9.12
2022-11-05T21:37:02.495Z,9.09
2022-11-05T21:39:47.923Z,9.08
2022-11-05T21:42:33.241Z,9.11
2022-11-05T21:45:18.761Z,9.05
2022-11-05T21:48:04.595Z,9.08
2022-11-05T21:51:12.871Z,9.03
2022-11-05T21:54:17.392Z,8.92
2022-11-05T21:57:21.541Z,8.94
2022-11-05T22:00:09.586Z,8.95
2022-11-05T22:02:55.161Z,8.96
2022-11-05T22:05:41.259Z,8.94
2022-11-05T22:08:27.444Z,8.94
2022-11-05T22:11:13.144Z,8.96
2022-11-05T22:13:58.507Z,8.95
2022-11-05T22:16:43.949Z,8.94
2022-11-05T22:19:29.629Z,8.99
2022-11-05T22:22:15.289Z,9.06
2022-11-05T22:25:00.997Z,9.03
2022-11-05T22:27:46.396Z,9.00
2022-11-05T22:30:35.560Z,8.94
2022-11-05T22:33:21.467Z,8.91
2022-11-05T22:36:07.879Z,8.92
2022-11-05T22:38:53.661Z,8.98
2022-11-05T22:41:40.240Z,9.01
2022-11-05T22:44:27.271Z,9.07
2022-11-05T22:47:14.203Z,9.14
2022-11-05T22:49:59.883Z,9.17
2022-11-05T22:52:45.369Z,9.21
2022-11-05T22:55:30.856Z,9.22
2022-11-05T22:58:16.322Z,9.25
2022-11-05T23:01:02.470Z,9.25
2022-11-05T23:03:49.399Z,9.28
2022-11-05T23:06:53.015Z,9.31
2022-11-05T23:09:57.868Z,9.31
2022-11-05T23:12:44.603Z,9.36
2022-11-05T23:15:48.752Z,9.39
2022-11-05T23:18:54.658Z,9.39
2022-11-05T23:21:58.938Z,9.43
2022-11-05T23:24:44.614Z,9.47
2022-11-05T23:27:32.340Z,9.52
2022-11-05T23:30:21.143Z,9.53
2022-11-05T23:33:06.535Z,9.49
2022-11-05T23:36:10.282Z,9.47
2022-11-05T23:38:56.018Z,9.36
2022-11-05T23:42:00.092Z,9.20
2022-11-05T23:45:15.010Z,9.10
2022-11-05T23:48:18.879Z,9.03
2022-11-05T23:51:05.950Z,8.97
2022-11-05T23:53:51.204Z,8.96
2022-11-05T23:56:36.685Z,8.88
2022-11-05T23:59:22.214Z,8.77
